createdAt,value
2018-02-20T00:02:18.097Z,58.30
2018-02-20T00:04:46.943Z,56.47
2018-02-20T00:07:12.788Z,63.70
2018-02-20T00:09:42.307Z,56.00
2018-02-20T00:12:08.168Z,63.28
2018-02-20T00:14:37.163Z,59.00
2018-02-20T00:17:03.016Z,49.10
2018-02-20T00:19:32.165Z,55.67
2018-02-20T00:21:58.028Z,64.30
2018-02-20T00:24:27.198Z,51.37
2018-02-20T00:26:53.033Z,55.33
2018-02-20T00:29:18.905Z,52.17
2018-02-20T00:31:44.756Z,56.13
2018-02-20T00:34:10.597Z,51.83
2018-02-20T00:36:37.995Z,55.37
2018-02-20T00:39:03.865Z,57.13
2018-02-20T00:41:32.964Z,58.10
2018-02-20T00:43:58.830Z,54.15
2018-02-20T00:46:28.227Z,57.50
2018-02-20T00:48:54.113Z,56.13
2018-02-20T00:51:23.302Z,54.20
2018-02-20T00:53:49.144Z,54.28
2018-02-20T00:56:16.678Z,69.07
2018-02-20T00:58:42.539Z,60.97
2018-02-20T01:01:12.170Z,60.17
2018-02-20T01:03:38.044Z,47.53
2018-02-20T01:06:03.899Z,52.50
2018-02-20T01:08:29.742Z,46.57
2018-02-20T01:10:55.649Z,59.37
2018-02-20T01:13:23.454Z,51.40
2018-02-20T01:15:49.276Z,62.60
2018-02-20T01:18:18.999Z,52.67
2018-02-20T01:20:44.858Z,55.90
2018-02-20T01:23:13.955Z,63.33
2018-02-20T01:25:39.859Z,49.95
2018-02-20T01:28:07.164Z,64.53
2018-02-20T01:30:33.010Z,59.65
2018-02-20T01:33:01.754Z,58.20
2018-02-20T01:35:31.438Z,62.67
2018-02-20T01:37:57.327Z,59.45
2018-02-20T01:40:23.192Z,53.17
2018-02-20T01:42:49.033Z,52.20
2018-02-20T01:45:15.225Z,49.17
2018-02-20T01:47:41.053Z,56.10
2018-02-20T01:50:08.446Z,57.53
2018-02-20T01:52:34.310Z,55.92
2018-02-20T01:55:03.653Z,68.73
2018-02-20T01:57:29.526Z,48.25
2018-02-20T01:59:59.119Z,55.03
2018-02-20T02:02:24.961Z,58.03
2018-02-20T02:04:52.627Z,55.87
2018-02-20T02:07:18.515Z,57.40
2018-02-20T02:09:47.382Z,56.80
2018-02-20T02:12:13.210Z,57.15
2018-02-20T02:14:41.945Z,56.87
2018-02-20T02:17:07.834Z,61.10
2018-02-20T02:19:33.676Z,61.37
2018-02-20T02:21:59.651Z,64.63
2018-02-20T02:24:25.506Z,54.33
2018-02-20T02:26:54.490Z,61.70
2018-02-20T02:29:20.328Z,67.40
2018-02-20T02:31:49.669Z,62.73
2018-02-20T02:34:15.499Z,66.47
2018-02-20T02:36:42.896Z,66.10
2018-02-20T02:39:08.734Z,66.40
2018-02-20T02:41:36.884Z,59.07
2018-02-20T02:44:02.746Z,74.93
2018-02-20T02:46:28.602Z,70.57
2018-02-20T02:48:54.504Z,64.43
2018-02-20T02:51:20.380Z,61.93
2018-02-20T02:53:48.998Z,67.33
2018-02-20T02:56:14.859Z,62.55
2018-02-20T02:58:44.669Z,64.20
2018-02-20T03:01:10.512Z,62.70
2018-02-20T03:03:40.166Z,59.27
2018-02-20T03:06:06.056Z,77.37
2018-02-20T03:08:33.365Z,70.50
2018-02-20T03:10:59.224Z,65.93
2018-02-20T03:15:56.015Z,73.47
2018-02-20T03:18:23.221Z,61.27
2018-02-20T03:20:49.063Z,63.63
2018-02-20T03:23:17.499Z,64.83
2018-02-20T03:25:43.361Z,62.85
2018-02-20T03:30:40.255Z,69.93
2018-02-20T03:33:06.146Z,61.23
2018-02-20T03:35:32.028Z,70.30
2018-02-20T03:37:57.870Z,70.30
2018-02-20T03:40:24.381Z,79.33
2018-02-20T03:42:50.267Z,67.32
2018-02-20T03:45:19.134Z,68.77
2018-02-20T03:47:45.116Z,65.97
2018-02-20T03:50:14.103Z,65.62
2018-02-20T03:52:39.954Z,67.00
2018-02-20T03:55:09.474Z,76.40
2018-02-20T03:57:35.358Z,64.78
2018-02-20T04:00:04.518Z,71.70
2018-02-20T04:02:30.358Z,73.60
2018-02-20T04:04:57.828Z,66.00
2018-02-20T04:07:23.669Z,69.25
2018-02-20T04:09:49.558Z,65.73
2018-02-20T04:12:15.398Z,69.30
2018-02-20T04:14:41.258Z,72.73
2018-02-20T04:17:10.854Z,79.93
2018-02-20T04:19:36.706Z,73.62
2018-02-20T04:22:06.169Z,77.67
2018-02-20T04:24:32.014Z,67.53
2018-02-20T04:26:59.332Z,75.10
2018-02-20T04:29:25.182Z,71.57
2018-02-20T04:31:54.721Z,74.90
2018-02-20T04:34:20.561Z,73.32
2018-02-20T04:36:49.842Z,78.83
2018-02-20T04:39:15.685Z,74.50
2018-02-20T04:41:43.098Z,62.83
2018-02-20T04:44:08.933Z,74.97
2018-02-20T04:46:34.797Z,60.00
2018-02-20T04:49:00.675Z,70.73
2018-02-20T04:51:26.517Z,64.83
2018-02-20T04:53:55.797Z,63.60
2018-02-20T04:56:21.664Z,57.92
2018-02-20T04:58:51.153Z,62.20
2018-02-20T05:01:17.015Z,63.90
2018-02-20T05:03:44.618Z,63.37
2018-02-20T05:06:10.478Z,70.05
2018-02-20T05:08:39.949Z,72.70
2018-02-20T05:11:05.797Z,70.18
2018-02-20T05:13:33.553Z,63.40
2018-02-20T05:15:59.407Z,63.58
2018-02-20T05:20:56.142Z,59.05
2018-02-20T05:23:22.079Z,62.80
2018-02-20T05:25:47.927Z,65.30
2018-02-20T05:28:13.777Z,52.33
2018-02-20T05:30:40.661Z,62.08
2018-02-20T05:33:06.494Z,56.63
2018-02-20T05:35:36.292Z,51.90
2018-02-20T05:38:02.165Z,61.83
2018-02-20T05:40:29.809Z,52.23
2018-02-20T05:42:55.654Z,52.97
2018-02-20T05:45:25.314Z,66.67
2018-02-20T05:47:51.174Z,59.97
2018-02-20T05:50:20.273Z,66.00
2018-02-20T05:52:46.130Z,61.10
2018-02-20T05:55:15.396Z,60.13
2018-02-20T05:57:41.232Z,50.08
2018-02-20T06:00:07.117Z,59.97
2018-02-20T06:02:33.004Z,60.80
2018-02-20T06:04:58.865Z,67.43
2018-02-20T06:07:25.196Z,51.70
2018-02-20T06:09:51.829Z,59.97
2018-02-20T06:12:21.393Z,63.22
2018-02-20T06:14:47.239Z,61.40
2018-02-20T06:17:16.638Z,65.33
2018-02-20T06:19:42.495Z,68.57
2018-02-20T06:22:10.082Z,65.10
2018-02-20T06:24:35.930Z,60.20
2018-02-20T06:27:05.204Z,57.43
2018-02-20T06:29:31.053Z,59.65
2018-02-20T06:32:00.532Z,70.30
2018-02-20T06:34:26.384Z,71.95
2018-02-20T06:36:52.224Z,66.77
2018-02-20T06:39:18.085Z,68.57
2018-02-20T06:41:43.949Z,74.80
2018-02-20T06:44:10.549Z,65.30
2018-02-20T06:46:36.399Z,65.60
2018-02-20T06:49:05.235Z,63.20
2018-02-20T06:51:31.068Z,60.28
2018-02-20T06:53:59.681Z,73.53
2018-02-20T06:56:25.577Z,61.72
2018-02-20T07:01:22.335Z,71.72
2018-02-20T07:03:50.225Z,63.73
2018-02-20T07:06:16.071Z,63.28
2018-02-20T07:08:45.439Z,66.00
2018-02-20T07:11:11.279Z,62.60
2018-02-20T07:13:37.115Z,63.93
2018-02-20T07:16:03.001Z,66.17
2018-02-20T07:18:28.843Z,72.87
2018-02-20T07:20:56.643Z,70.07
2018-02-20T07:23:22.507Z,69.60
2018-02-20T07:25:52.113Z,62.17
2018-02-20T07:28:17.984Z,59.13
2018-02-20T07:31:00.397Z,59.40
2018-02-20T07:33:26.248Z,46.30
2018-02-20T07:35:52.068Z,47.57
2018-02-20T07:38:17.943Z,52.83
2018-02-20T07:40:43.798Z,50.10
2018-02-20T07:43:09.654Z,53.27
2018-02-20T07:45:35.531Z,55.27
2018-02-20T07:48:01.388Z,48.07
2018-02-20T07:50:27.243Z,58.83
2018-02-20T07:52:53.110Z,50.63
2018-02-20T07:55:18.945Z,49.60
2018-02-20T07:57:44.802Z,47.30
2018-02-20T08:00:10.633Z,45.80
2018-02-20T08:02:36.563Z,38.13
2018-02-20T08:05:02.439Z,37.97
2018-02-20T08:07:31.340Z,41.93
2018-02-20T08:09:57.205Z,48.60
2018-02-20T08:12:26.853Z,35.53
2018-02-20T08:14:52.717Z,37.15
2018-02-20T08:17:20.492Z,40.80
2018-02-20T08:19:46.362Z,36.42
2018-02-20T08:22:15.651Z,34.67
2018-02-20T08:24:41.534Z,34.60
2018-02-20T08:27:07.437Z,35.17
2018-02-20T08:29:33.265Z,39.03
2018-02-20T08:31:59.129Z,52.70
2018-02-20T08:34:26.890Z,40.20
2018-02-20T08:36:52.785Z,47.30
2018-02-20T08:39:22.378Z,45.97
2018-02-20T08:41:48.275Z,34.97
2018-02-20T08:44:17.747Z,36.83
2018-02-20T08:46:43.629Z,38.13
2018-02-20T08:49:11.261Z,32.80
2018-02-20T08:51:37.087Z,33.28
2018-02-20T08:54:06.186Z,30.60
2018-02-20T08:56:32.054Z,35.80
2018-02-20T08:59:01.132Z,31.13
2018-02-20T09:01:27.034Z,32.90
2018-02-20T09:03:52.886Z,29.93
2018-02-20T09:06:18.757Z,34.10
2018-02-20T09:08:44.583Z,35.47
2018-02-20T09:11:12.386Z,34.60
2018-02-20T09:13:38.247Z,41.00
2018-02-20T09:16:07.686Z,35.30
2018-02-20T09:18:33.544Z,31.20
2018-02-20T09:21:02.915Z,26.57
2018-02-20T09:23:28.766Z,30.37
2018-02-20T09:25:57.802Z,34.03
2018-02-20T09:28:23.623Z,33.10
2018-02-20T09:30:50.771Z,30.50
2018-02-20T09:33:16.631Z,29.37
2018-02-20T09:35:45.534Z,33.20
2018-02-20T09:38:11.408Z,35.00
2018-02-20T09:40:37.311Z,35.10
2018-02-20T09:43:03.152Z,30.80
2018-02-20T09:45:29.044Z,29.97
2018-02-20T09:47:58.829Z,37.13
2018-02-20T09:50:24.703Z,38.42
2018-02-20T09:52:52.194Z,31.93
2018-02-20T10:01:03.812Z,26.33
2018-02-20T10:03:29.665Z,29.00
2018-02-20T10:05:55.530Z,34.63
2018-02-20T10:08:21.380Z,29.83
2018-02-20T10:10:47.256Z,29.47
2018-02-20T10:13:13.092Z,29.53
2018-02-20T10:15:38.958Z,23.97
2018-02-20T10:18:04.811Z,29.40
2018-02-20T10:20:30.655Z,24.73
2018-02-20T10:22:56.480Z,31.10
2018-02-20T10:25:22.328Z,28.93
2018-02-20T10:27:48.174Z,30.93
2018-02-20T10:30:14.052Z,23.30
2018-02-20T10:32:39.926Z,22.97
2018-02-20T10:35:05.781Z,27.57
2018-02-20T10:37:31.656Z,25.47
2018-02-20T10:39:57.488Z,24.13
2018-02-20T10:42:23.371Z,30.20
2018-02-20T10:44:49.236Z,28.83
2018-02-20T10:47:15.094Z,27.90
2018-02-20T10:49:40.916Z,34.60
2018-02-20T10:52:06.755Z,28.60
2018-02-20T10:54:32.630Z,26.00
2018-02-20T10:56:58.458Z,32.37
2018-02-20T10:59:24.302Z,38.10
2018-02-20T11:01:50.184Z,35.77
2018-02-20T11:04:16.085Z,35.57
2018-02-20T11:06:41.944Z,34.40
2018-02-20T11:09:07.837Z,36.70
2018-02-20T11:11:33.706Z,39.80
2018-02-20T11:13:59.572Z,31.00
2018-02-20T11:16:25.417Z,34.30
2018-02-20T11:18:51.256Z,34.73
2018-02-20T11:21:17.114Z,29.90
2018-02-20T11:23:42.969Z,28.20
2018-02-20T11:26:08.821Z,32.53
2018-02-20T11:28:34.674Z,36.73
2018-02-20T11:31:00.522Z,33.03
2018-02-20T11:33:26.396Z,33.43
2018-02-20T11:35:52.234Z,34.70
2018-02-20T11:38:18.082Z,33.17
2018-02-20T11:40:43.928Z,32.73
2018-02-20T11:43:09.783Z,32.70
2018-02-20T11:45:35.653Z,33.20
2018-02-20T11:48:02.480Z,37.77
2018-02-20T11:50:28.337Z,39.15
2018-02-20T11:52:57.759Z,40.87
2018-02-20T11:55:23.610Z,44.58
2018-02-20T11:57:53.018Z,31.93
2018-02-20T12:00:18.915Z,36.97
2018-02-20T12:02:47.922Z,35.57
2018-02-20T12:05:13.764Z,40.30
2018-02-20T12:07:39.636Z,40.00
2018-02-20T12:10:05.499Z,40.27
2018-02-20T12:12:31.375Z,29.53
2018-02-20T12:14:58.653Z,32.40
2018-02-20T12:17:24.511Z,38.42
2018-02-20T12:19:53.146Z,39.20
2018-02-20T12:22:19.038Z,35.83
2018-02-20T12:24:47.990Z,35.23
2018-02-20T12:27:13.830Z,39.10
2018-02-20T12:29:42.980Z,40.10
2018-02-20T12:32:08.824Z,39.92
2018-02-20T12:34:38.707Z,34.80
2018-02-20T12:37:04.552Z,34.22
2018-02-20T12:39:33.558Z,31.07
2018-02-20T12:41:59.404Z,33.88
2018-02-20T12:44:25.259Z,32.07
2018-02-20T12:46:51.125Z,33.73
2018-02-20T12:49:16.970Z,29.13
2018-02-20T12:51:44.158Z,32.33
2018-02-20T12:54:10.001Z,31.58
2018-02-20T12:56:39.165Z,32.83
2018-02-20T12:59:05.045Z,35.15
2018-02-20T13:01:34.132Z,32.13
2018-02-20T13:04:00.021Z,30.60
2018-02-20T13:06:29.111Z,33.47
2018-02-20T13:08:54.978Z,32.72
2018-02-20T13:11:24.239Z,29.00
2018-02-20T13:13:50.060Z,34.83
2018-02-20T13:16:17.485Z,77.90
2018-02-20T13:18:43.336Z,48.25
2018-02-20T13:21:09.219Z,30.73
2018-02-20T13:23:35.079Z,34.57
2018-02-20T13:26:00.934Z,30.50
2018-02-20T13:28:30.756Z,31.97
2018-02-20T13:30:56.641Z,37.10
2018-02-20T13:33:24.256Z,32.00
2018-02-20T13:35:50.117Z,28.45
2018-02-20T13:38:19.926Z,37.47
2018-02-20T13:40:45.781Z,25.85
2018-02-20T13:43:13.263Z,30.80
2018-02-20T13:45:39.145Z,30.65
2018-02-20T13:48:08.592Z,37.00
2018-02-20T13:50:34.457Z,34.80
2018-02-20T13:53:03.493Z,35.33
2018-02-20T13:55:29.334Z,35.83
2018-02-20T13:57:55.215Z,40.30
2018-02-20T14:00:21.054Z,38.17
2018-02-20T14:02:46.922Z,32.83
2018-02-20T14:05:15.956Z,34.80
2018-02-20T14:07:41.852Z,41.03
2018-02-20T14:10:08.827Z,35.77
2018-02-20T14:12:34.697Z,38.47
2018-02-20T14:15:03.330Z,38.80
2018-02-20T14:17:29.187Z,32.47
2018-02-20T14:22:26.035Z,32.10
2018-02-20T14:24:53.199Z,34.43
2018-02-20T14:27:19.036Z,34.58
2018-02-20T14:29:47.903Z,37.10
2018-02-20T14:32:13.748Z,40.97
2018-02-20T14:34:39.637Z,39.67
2018-02-20T14:37:05.516Z,43.47
2018-02-20T14:39:31.359Z,39.10
2018-02-20T14:42:00.680Z,53.50
2018-02-20T14:44:26.542Z,43.25
2018-02-20T14:46:56.164Z,35.50
2018-02-20T14:49:21.993Z,37.35
2018-02-20T14:51:49.681Z,38.23
2018-02-20T14:54:15.556Z,34.55
2018-02-20T14:56:44.838Z,34.97
2018-02-20T14:59:10.723Z,32.97
2018-02-20T15:01:40.225Z,39.30
2018-02-20T15:04:06.119Z,37.13
2018-02-20T15:06:33.914Z,38.60
2018-02-20T15:08:59.756Z,37.40
2018-02-20T15:11:25.623Z,44.30
2018-02-20T15:13:51.461Z,39.73
2018-02-20T15:16:17.368Z,41.13
2018-02-20T15:18:46.322Z,60.60
2018-02-20T15:21:12.174Z,66.53
2018-02-20T15:23:41.249Z,55.67
2018-02-20T15:26:08.102Z,38.10
2018-02-20T15:28:34.413Z,43.10
2018-02-20T15:31:00.291Z,39.92
2018-02-20T15:33:29.121Z,48.50
2018-02-20T15:35:55.003Z,47.30
2018-02-20T15:38:23.890Z,48.77
2018-02-20T15:40:49.723Z,54.33
2018-02-20T15:43:18.628Z,51.33
2018-02-20T15:45:44.483Z,48.63
2018-02-20T15:48:10.356Z,48.73
2018-02-20T15:50:36.187Z,44.10
2018-02-20T15:53:02.037Z,51.23
2018-02-20T15:55:31.306Z,45.90
2018-02-20T15:57:57.141Z,43.67
2018-02-20T16:00:26.559Z,45.70
2018-02-20T16:02:52.437Z,43.83
2018-02-20T16:05:20.037Z,44.83
2018-02-20T16:07:45.873Z,46.22
2018-02-20T16:10:15.050Z,49.13
2018-02-20T16:12:40.926Z,42.05
2018-02-20T16:15:10.107Z,53.77
2018-02-20T16:17:36.022Z,47.15
2018-02-20T16:20:04.928Z,45.13
2018-02-20T16:22:30.805Z,48.80
2018-02-20T16:24:56.654Z,49.47
2018-02-20T16:27:22.505Z,64.10
2018-02-20T16:29:48.388Z,56.43
2018-02-20T16:32:15.709Z,53.00
2018-02-20T16:34:41.564Z,49.33
2018-02-20T16:37:10.397Z,51.03
2018-02-20T16:39:38.522Z,54.28
2018-02-20T16:42:04.947Z,51.97
2018-02-20T16:44:30.809Z,51.50
2018-02-20T16:46:59.901Z,51.00
2018-02-20T16:49:25.766Z,59.83
2018-02-20T16:51:55.070Z,56.70
2018-02-20T16:54:20.938Z,59.40
2018-02-20T16:56:50.026Z,62.70
2018-02-20T16:59:15.907Z,56.25
2018-02-20T17:01:41.872Z,58.07
2018-02-20T17:04:07.764Z,56.17
2018-02-20T17:06:33.624Z,56.43
2018-02-20T17:09:01.290Z,58.30
2018-02-20T17:11:27.193Z,59.50
2018-02-20T17:13:56.267Z,61.30
2018-02-20T17:16:22.109Z,52.65
2018-02-20T17:18:51.043Z,52.67
2018-02-20T17:21:16.945Z,61.60
2018-02-20T17:23:46.021Z,117.37
2018-02-20T17:26:11.872Z,61.78
2018-02-20T17:28:41.099Z,57.97
2018-02-20T17:31:06.950Z,58.30
2018-02-20T17:33:36.072Z,61.53
2018-02-20T17:36:01.942Z,80.40
2018-02-20T17:38:27.776Z,54.17
2018-02-20T17:40:53.686Z,50.63
2018-02-20T17:43:19.555Z,47.37
2018-02-20T17:45:46.663Z,58.57
2018-02-20T17:48:12.526Z,48.15
2018-02-20T17:50:41.836Z,46.30
2018-02-20T17:53:07.717Z,49.45
2018-02-20T17:55:36.696Z,44.90
2018-02-20T17:58:02.570Z,52.55
2018-02-20T18:00:31.927Z,53.17
2018-02-20T18:02:57.804Z,52.47
2018-02-20T18:05:25.185Z,56.37
2018-02-20T18:07:51.056Z,54.75
2018-02-20T18:10:20.201Z,59.80
2018-02-20T18:12:46.052Z,51.95
2018-02-20T18:15:12.054Z,53.20
2018-02-20T18:17:37.907Z,57.70
2018-02-20T18:20:03.788Z,55.40
2018-02-20T18:22:31.441Z,55.93
2018-02-20T18:24:57.296Z,48.45
2018-02-20T18:27:26.639Z,58.73
2018-02-20T18:29:52.525Z,57.00
2018-02-20T18:32:22.047Z,46.30
2018-02-20T18:34:47.899Z,49.05
2018-02-20T18:37:16.951Z,50.83
2018-02-20T18:39:42.791Z,48.75
2018-02-20T18:42:11.905Z,46.37
2018-02-20T18:44:37.724Z,47.67
2018-02-20T18:47:06.910Z,58.80
2018-02-20T18:49:32.779Z,52.75
2018-02-20T18:51:58.633Z,69.27
2018-02-20T18:54:24.487Z,65.03
2018-02-20T18:56:50.326Z,50.67
2018-02-20T18:59:17.485Z,50.13
2018-02-20T19:01:43.406Z,48.63
2018-02-20T19:04:12.400Z,56.23
2018-02-20T19:06:38.276Z,56.17
2018-02-20T19:09:07.417Z,62.53
2018-02-20T19:11:33.265Z,52.17
2018-02-20T19:14:02.218Z,59.07
2018-02-20T19:16:28.072Z,59.85
2018-02-20T19:18:57.461Z,61.97
2018-02-20T19:21:23.317Z,57.70
2018-02-20T19:23:50.536Z,60.47
2018-02-20T19:26:16.361Z,63.65
2018-02-20T19:28:42.259Z,62.30
2018-02-20T19:31:08.125Z,59.50
2018-02-20T19:33:33.986Z,54.80
2018-02-20T19:36:03.129Z,59.40
2018-02-20T19:38:28.967Z,65.50
2018-02-20T19:40:58.203Z,69.40
2018-02-20T19:43:24.024Z,66.07
2018-02-20T19:45:53.150Z,60.73
2018-02-20T19:48:19.017Z,63.78
2018-02-20T19:50:47.974Z,58.60
2018-02-20T19:53:13.818Z,61.50
2018-02-20T19:55:40.911Z,70.07
2018-02-20T19:58:06.761Z,69.37
2018-02-20T20:03:03.532Z,62.38
2018-02-20T20:05:29.380Z,67.83
2018-02-20T20:07:55.240Z,58.73
2018-02-20T20:10:21.114Z,69.80
2018-02-20T20:12:47.650Z,69.47
2018-02-20T20:15:13.522Z,69.87
2018-02-20T20:17:42.738Z,64.33
2018-02-20T20:20:08.594Z,61.28
2018-02-20T20:22:37.865Z,60.00
2018-02-20T20:25:03.753Z,59.03
2018-02-20T20:27:32.765Z,66.27
2018-02-20T20:29:58.609Z,62.30
2018-02-20T20:32:27.924Z,57.97
2018-02-20T20:34:53.752Z,62.85
2018-02-20T20:37:21.233Z,71.60
2018-02-20T20:39:47.087Z,65.05
2018-02-20T20:42:12.938Z,61.27
2018-02-20T20:44:38.795Z,70.63
2018-02-20T20:47:04.640Z,64.60
2018-02-20T20:49:33.990Z,61.93
2018-02-20T20:51:59.850Z,64.72
2018-02-20T20:54:28.942Z,63.90
2018-02-20T20:56:54.837Z,67.80
2018-02-20T20:59:23.708Z,64.43
2018-02-20T21:01:49.579Z,63.87
2018-02-20T21:04:18.742Z,59.37
2018-02-20T21:06:44.615Z,65.93
2018-02-20T21:09:11.713Z,68.53
2018-02-20T21:11:37.587Z,72.45
2018-02-20T21:14:07.294Z,75.20
2018-02-20T21:16:33.151Z,81.75
2018-02-20T21:18:59.050Z,71.10
2018-02-20T21:21:24.915Z,70.93
2018-02-20T21:23:50.775Z,72.53
2018-02-20T21:26:19.665Z,68.20
2018-02-20T21:28:45.542Z,65.43
2018-02-20T21:31:14.569Z,73.07
2018-02-20T21:33:40.421Z,73.53
2018-02-20T21:36:07.707Z,67.50
2018-02-20T21:38:33.533Z,69.90
2018-02-20T21:41:02.338Z,66.23
2018-02-20T21:43:28.192Z,73.65
2018-02-20T21:45:57.043Z,84.70
2018-02-20T21:48:22.903Z,72.20
2018-02-20T21:53:19.486Z,66.47
2018-02-20T21:55:45.334Z,68.77
2018-02-20T21:58:11.320Z,74.03
2018-02-20T22:00:37.179Z,64.05
2018-02-20T22:03:04.251Z,67.53
2018-02-20T22:05:30.102Z,73.35
2018-02-20T22:07:59.125Z,83.87
2018-02-20T22:10:24.977Z,62.03
2018-02-20T22:12:54.143Z,71.33
2018-02-20T22:15:20.030Z,84.78
2018-02-20T22:17:47.809Z,87.30
2018-02-20T22:20:13.688Z,69.72
2018-02-20T22:22:43.539Z,69.10
2018-02-20T22:25:09.407Z,78.95
2018-02-20T22:27:38.807Z,85.53
2018-02-20T22:30:04.685Z,69.60
2018-02-20T22:32:30.541Z,68.97
2018-02-20T22:34:56.391Z,80.13
2018-02-20T22:37:22.250Z,68.63
2018-02-20T22:39:49.686Z,86.47
2018-02-20T22:42:15.525Z,79.03
2018-02-20T22:44:44.785Z,60.60
2018-02-20T22:47:10.641Z,77.78
2018-02-20T22:49:40.112Z,69.10
2018-02-20T22:52:05.959Z,72.87
2018-02-20T22:54:33.458Z,77.13
2018-02-20T22:56:59.316Z,70.90
2018-02-20T22:59:29.598Z,73.13
2018-02-20T23:01:55.477Z,78.87
2018-02-20T23:04:22.404Z,83.57
2018-02-20T23:06:48.301Z,82.50
2018-02-20T23:09:14.161Z,76.47
2018-02-20T23:11:46.090Z,95.10
2018-02-20T23:14:11.934Z,73.12
2018-02-20T23:16:37.776Z,73.37
2018-02-20T23:19:03.637Z,78.07
2018-02-20T23:21:29.476Z,69.60
2018-02-20T23:23:55.343Z,77.67
2018-02-20T23:26:24.173Z,71.30
2018-02-20T23:28:50.145Z,81.07
2018-02-20T23:31:19.147Z,78.43
2018-02-20T23:33:45.000Z,75.62
2018-02-20T23:36:14.279Z,66.80
2018-02-20T23:38:40.172Z,70.80
2018-02-20T23:41:09.321Z,75.30
2018-02-20T23:43:35.128Z,73.30
2018-02-20T23:46:00.956Z,70.60
2018-02-20T23:48:28.288Z,67.77
2018-02-20T23:51:00.368Z,71.72
2018-02-20T23:53:26.223Z,73.60
2018-02-20T23:55:52.108Z,71.93
2018-02-20T23:58:17.946Z,66.23
